sensor_id;sensor_type;location;lat;lon;timestamp;P1;durP1;ratioP1;P2;durP2;ratioP2
36253;SDS011;22291;52.250;21.228;2022-12-20T00:01:21;62.40;;;26.10;;
36253;SDS011;22291;52.250;21.228;2022-12-20T00:03:51;56.05;;;23.38;;
36253;SDS011;22291;52.250;21.228;2022-12-20T00:06:21;54.88;;;23.70;;
36253;SDS011;22291;52.250;21.228;2022-12-20T00:08:52;62.27;;;25.33;;
36253;SDS011;22291;52.250;21.228;2022-12-20T06:45:33;38.92;;;18.17;;
36253;SDS011;22291;52.250;21.228;2022-12-20T06:48:01;39.15;;;19.37;;
36253;SDS011;22291;52.250;21.228;2022-12-20T06:50:27;40.05;;;18.30;;
36253;SDS011;22291;52.250;21.228;2022-12-20T06:52:53;39.38;;;18.60;;
36253;SDS011;22291;52.250;21.228;2022-12-20T06:55:20;40.58;;;18.62;;
36253;SDS011;22291;52.250;21.228;2022-12-20T06:57:46;35.73;;;17.30;;
36253;SDS011;22291;52.250;21.228;2022-12-20T07:00:14;41.60;;;18.80;;
36253;SDS011;22291;52.250;21.228;2022-12-20T07:02:42;38.15;;;17.15;;
36253;SDS011;22291;52.250;21.228;2022-12-20T07:05:10;40.08;;;17.05;;
36253;SDS011;22291;52.250;21.228;2022-12-20T07:07:36;37.48;;;16.85;;
36253;SDS011;22291;52.250;21.228;2022-12-20T07:10:03;36.55;;;17.52;;
36253;SDS011;22291;52.250;21.228;2022-12-20T07:12:31;31.55;;;15.65;;
36253;SDS011;22291;52.250;21.228;2022-12-20T07:14:58;37.15;;;19.25;;
36253;SDS011;22291;52.250;21.228;2022-12-20T07:17:25;37.30;;;17.35;;
36253;SDS011;22291;52.250;21.228;2022-12-20T07:19:51;37.40;;;17.32;;
36253;SDS011;22291;52.250;21.228;2022-12-20T07:22:17;33.50;;;15.68;;
36253;SDS011;22291;52.250;21.228;2022-12-20T07:24:44;31.82;;;15.30;;
36253;SDS011;22291;52.250;21.228;2022-12-20T07:27:12;40.30;;;17.40;;
36253;SDS011;22291;52.250;21.228;2022-12-20T07:29:38;38.08;;;17.57;;
36253;SDS011;22291;52.250;21.228;2022-12-20T07:32:06;34.50;;;16.48;;
36253;SDS011;22291;52.250;21.228;2022-12-20T07:34:35;35.15;;;17.20;;
36253;SDS011;22291;52.250;21.228;2022-12-20T07:37:02;35.67;;;15.70;;
36253;SDS011;22291;52.250;21.228;2022-12-20T07:39:29;32.25;;;16.40;;
36253;SDS011;22291;52.250;21.228;2022-12-20T07:41:55;35.10;;;17.25;;
36253;SDS011;22291;52.250;21.228;2022-12-20T07:44:23;35.40;;;17.27;;
36253;SDS011;22291;52.250;21.228;2022-12-20T07:46:49;34.83;;;16.15;;
36253;SDS011;22291;52.250;21.228;2022-12-20T07:49:15;34.50;;;16.80;;
36253;SDS011;22291;52.250;21.228;2022-12-20T07:51:46;38.60;;;17.17;;
36253;SDS011;22291;52.250;21.228;2022-12-20T07:54:30;36.83;;;15.10;;
36253;SDS011;22291;52.250;21.228;2022-12-20T07:56:57;35.68;;;14.70;;
36253;SDS011;22291;52.250;21.228;2022-12-20T07:59:37;36.68;;;15.00;;
36253;SDS011;22291;52.250;21.228;2022-12-20T08:02:08;33.80;;;15.85;;
36253;SDS011;22291;52.250;21.228;2022-12-20T08:04:39;35.65;;;16.20;;
36253;SDS011;22291;52.250;21.228;2022-12-20T08:07:05;34.13;;;15.95;;
36253;SDS011;22291;52.250;21.228;2022-12-20T08:09:34;29.10;;;14.18;;
36253;SDS011;22291;52.250;21.228;2022-12-20T08:12:04;35.38;;;16.52;;
36253;SDS011;22291;52.250;21.228;2022-12-20T08:14:33;23.95;;;11.78;;
36253;SDS011;22291;52.250;21.228;2022-12-20T08:17:00;34.10;;;17.12;;
36253;SDS011;22291;52.250;21.228;2022-12-20T08:19:26;35.95;;;17.37;;
36253;SDS011;22291;52.250;21.228;2022-12-20T08:21:52;34.48;;;17.00;;
36253;SDS011;22291;52.250;21.228;2022-12-20T08:24:19;39.03;;;18.55;;
36253;SDS011;22291;52.250;21.228;2022-12-20T08:26:46;35.17;;;17.40;;
36253;SDS011;22291;52.250;21.228;2022-12-20T08:29:12;37.50;;;18.52;;
36253;SDS011;22291;52.250;21.228;2022-12-20T08:31:39;34.60;;;17.30;;
36253;SDS011;22291;52.250;21.228;2022-12-20T08:34:09;36.38;;;17.42;;
36253;SDS011;22291;52.250;21.228;2022-12-20T08:36:36;39.80;;;19.42;;
36253;SDS011;22291;52.250;21.228;2022-12-20T08:39:03;37.90;;;17.73;;
36253;SDS011;22291;52.250;21.228;2022-12-20T08:41:36;36.05;;;17.60;;
36253;SDS011;22291;52.250;21.228;2022-12-20T08:46:29;33.98;;;17.15;;
36253;SDS011;22291;52.250;21.228;2022-12-20T08:48:56;34.53;;;17.32;;
36253;SDS011;22291;52.250;21.228;2022-12-20T08:51:22;43.08;;;19.05;;
36253;SDS011;22291;52.250;21.228;2022-12-20T08:53:49;36.58;;;18.80;;
36253;SDS011;22291;52.250;21.228;2022-12-20T08:56:16;36.38;;;17.73;;
36253;SDS011;22291;52.250;21.228;2022-12-20T08:58:44;41.85;;;19.82;;
36253;SDS011;22291;52.250;21.228;2022-12-20T09:01:15;39.98;;;19.98;;
36253;SDS011;22291;52.250;21.228;2022-12-20T09:03:43;43.15;;;20.85;;
36253;SDS011;22291;52.250;21.228;2022-12-20T09:06:13;44.30;;;21.15;;
36253;SDS011;22291;52.250;21.228;2022-12-20T09:08:42;40.60;;;19.77;;
36253;SDS011;22291;52.250;21.228;2022-12-20T09:11:14;44.30;;;21.20;;
36253;SDS011;22291;52.250;21.228;2022-12-20T09:13:41;43.05;;;20.55;;
36253;SDS011;22291;52.250;21.228;2022-12-20T09:16:10;41.70;;;20.25;;
36253;SDS011;22291;52.250;21.228;2022-12-20T09:18:40;41.33;;;20.27;;
36253;SDS011;22291;52.250;21.228;2022-12-20T09:21:07;43.87;;;20.15;;
36253;SDS011;22291;52.250;21.228;2022-12-20T09:23:35;40.58;;;20.10;;
36253;SDS011;22291;52.250;21.228;2022-12-20T09:26:04;42.95;;;20.17;;
36253;SDS011;22291;52.250;21.228;2022-12-20T09:30:59;40.73;;;19.92;;
36253;SDS011;22291;52.250;21.228;2022-12-20T09:33:28;37.53;;;19.90;;
36253;SDS011;22291;52.250;21.228;2022-12-20T09:35:56;42.83;;;20.88;;
36253;SDS011;22291;52.250;21.228;2022-12-20T09:38:25;40.55;;;19.73;;
36253;SDS011;22291;52.250;21.228;2022-12-20T09:40:54;47.20;;;20.70;;
36253;SDS011;22291;52.250;21.228;2022-12-20T09:43:25;36.85;;;18.85;;
36253;SDS011;22291;52.250;21.228;2022-12-20T09:46:01;36.55;;;20.12;;
36253;SDS011;22291;52.250;21.228;2022-12-20T09:48:32;36.40;;;20.05;;
36253;SDS011;22291;52.250;21.228;2022-12-20T09:54:02;38.80;;;19.25;;
36253;SDS011;22291;52.250;21.228;2022-12-20T09:57:17;36.45;;;19.32;;
36253;SDS011;22291;52.250;21.228;2022-12-20T09:59:50;40.48;;;19.55;;
36253;SDS011;22291;52.250;21.228;2022-12-20T10:02:25;37.75;;;19.45;;
36253;SDS011;22291;52.250;21.228;2022-12-20T10:04:59;39.05;;;20.12;;
36253;SDS011;22291;52.250;21.228;2022-12-20T10:07:38;34.92;;;18.20;;
36253;SDS011;22291;52.250;21.228;2022-12-20T10:21:41;36.50;;;19.10;;
36253;SDS011;22291;52.250;21.228;2022-12-20T10:24:28;33.28;;;18.77;;
36253;SDS011;22291;52.250;21.228;2022-12-20T10:27:01;37.93;;;19.17;;
36253;SDS011;22291;52.250;21.228;2022-12-20T10:29:41;40.40;;;20.15;;
36253;SDS011;22291;52.250;21.228;2022-12-20T10:32:16;37.58;;;18.77;;
36253;SDS011;22291;52.250;21.228;2022-12-20T10:34:49;30.55;;;18.55;;
36253;SDS011;22291;52.250;21.228;2022-12-20T10:37:17;33.73;;;17.77;;
36253;SDS011;22291;52.250;21.228;2022-12-20T10:39:46;36.48;;;18.52;;
36253;SDS011;22291;52.250;21.228;2022-12-20T10:42:25;34.90;;;19.17;;
36253;SDS011;22291;52.250;21.228;2022-12-20T10:47:43;36.23;;;19.85;;
36253;SDS011;22291;52.250;21.228;2022-12-20T10:53:01;37.95;;;19.37;;
36253;SDS011;22291;52.250;21.228;2022-12-20T10:55:38;37.67;;;18.15;;
36253;SDS011;22291;52.250;21.228;2022-12-20T10:58:17;38.78;;;20.02;;
36253;SDS011;22291;52.250;21.228;2022-12-20T11:01:13;34.10;;;20.68;;
36253;SDS011;22291;52.250;21.228;2022-12-20T11:03:54;36.53;;;18.57;;
36253;SDS011;22291;52.250;21.228;2022-12-20T11:06:41;39.90;;;20.30;;
36253;SDS011;22291;52.250;21.228;2022-12-20T11:09:20;36.58;;;20.08;;
36253;SDS011;22291;52.250;21.228;2022-12-20T11:12:03;34.50;;;18.40;;
36253;SDS011;22291;52.250;21.228;2022-12-20T11:14:34;40.83;;;19.10;;
36253;SDS011;22291;52.250;21.228;2022-12-20T11:17:05;39.20;;;18.80;;
36253;SDS011;22291;52.250;21.228;2022-12-20T11:25:49;38.83;;;20.43;;
36253;SDS011;22291;52.250;21.228;2022-12-20T11:42:22;40.83;;;20.27;;
36253;SDS011;22291;52.250;21.228;2022-12-20T11:47:43;48.28;;;23.98;;
36253;SDS011;22291;52.250;21.228;2022-12-20T11:50:18;45.03;;;21.25;;
36253;SDS011;22291;52.250;21.228;2022-12-20T11:52:53;41.18;;;21.30;;
36253;SDS011;22291;52.250;21.228;2022-12-20T11:55:27;42.78;;;22.05;;
36253;SDS011;22291;52.250;21.228;2022-12-20T11:58:02;41.83;;;22.05;;
36253;SDS011;22291;52.250;21.228;2022-12-20T12:00:55;49.98;;;23.52;;
36253;SDS011;22291;52.250;21.228;2022-12-20T12:03:32;44.20;;;22.55;;
36253;SDS011;22291;52.250;21.228;2022-12-20T12:06:04;45.25;;;23.15;;
36253;SDS011;22291;52.250;21.228;2022-12-20T12:08:54;47.67;;;22.30;;
36253;SDS011;22291;52.250;21.228;2022-12-20T12:11:30;45.55;;;23.25;;
36253;SDS011;22291;52.250;21.228;2022-12-20T12:14:01;45.12;;;23.42;;
36253;SDS011;22291;52.250;21.228;2022-12-20T12:16:32;42.95;;;22.82;;
36253;SDS011;22291;52.250;21.228;2022-12-20T12:19:06;43.75;;;23.50;;
36253;SDS011;22291;52.250;21.228;2022-12-20T12:21:36;45.43;;;24.05;;
36253;SDS011;22291;52.250;21.228;2022-12-20T12:26:58;43.95;;;23.30;;
36253;SDS011;22291;52.250;21.228;2022-12-20T12:29:26;44.67;;;23.22;;
36253;SDS011;22291;52.250;21.228;2022-12-20T12:32:00;43.50;;;22.90;;
36253;SDS011;22291;52.250;21.228;2022-12-20T12:37:53;42.13;;;21.90;;
36253;SDS011;22291;52.250;21.228;2022-12-20T12:40:36;49.23;;;23.85;;
36253;SDS011;22291;52.250;21.228;2022-12-20T12:46:10;43.58;;;22.58;;
36253;SDS011;22291;52.250;21.228;2022-12-20T12:48:53;50.25;;;23.77;;
36253;SDS011;22291;52.250;21.228;2022-12-20T12:51:33;43.58;;;22.07;;
36253;SDS011;22291;52.250;21.228;2022-12-20T12:54:11;41.75;;;21.75;;
36253;SDS011;22291;52.250;21.228;2022-12-20T12:56:45;45.83;;;22.95;;
36253;SDS011;22291;52.250;21.228;2022-12-20T13:04:58;40.33;;;21.07;;
36253;SDS011;22291;52.250;21.228;2022-12-20T13:12:54;46.37;;;23.52;;
36253;SDS011;22291;52.250;21.228;2022-12-20T13:17:57;45.88;;;21.70;;
36253;SDS011;22291;52.250;21.228;2022-12-20T13:20:37;45.20;;;21.85;;
36253;SDS011;22291;52.250;21.228;2022-12-20T13:25:41;45.40;;;22.32;;
36253;SDS011;22291;52.250;21.228;2022-12-20T13:39:03;44.45;;;23.42;;
36253;SDS011;22291;52.250;21.228;2022-12-20T13:41:50;42.53;;;22.05;;
36253;SDS011;22291;52.250;21.228;2022-12-20T13:44:25;48.60;;;24.02;;
36253;SDS011;22291;52.250;21.228;2022-12-20T13:50:27;49.13;;;23.12;;
36253;SDS011;22291;52.250;21.228;2022-12-20T13:53:16;46.30;;;22.20;;
36253;SDS011;22291;52.250;21.228;2022-12-20T13:58:19;47.33;;;23.47;;
36253;SDS011;22291;52.250;21.228;2022-12-20T14:00:53;45.78;;;23.47;;
36253;SDS011;22291;52.250;21.228;2022-12-20T14:03:39;44.50;;;22.45;;
36253;SDS011;22291;52.250;21.228;2022-12-20T14:06:10;43.35;;;22.80;;
36253;SDS011;22291;52.250;21.228;2022-12-20T14:08:41;53.05;;;24.60;;
36253;SDS011;22291;52.250;21.228;2022-12-20T14:11:17;48.75;;;24.98;;
36253;SDS011;22291;52.250;21.228;2022-12-20T14:13:53;49.20;;;24.55;;
36253;SDS011;22291;52.250;21.228;2022-12-20T14:16:24;49.40;;;24.85;;
36253;SDS011;22291;52.250;21.228;2022-12-20T14:21:34;48.52;;;24.65;;
36253;SDS011;22291;52.250;21.228;2022-12-20T14:24:05;51.00;;;25.97;;
36253;SDS011;22291;52.250;21.228;2022-12-20T14:26:44;49.20;;;25.10;;
36253;SDS011;22291;52.250;21.228;2022-12-20T14:31:44;47.80;;;24.77;;
36253;SDS011;22291;52.250;21.228;2022-12-20T14:34:15;50.23;;;23.80;;
36253;SDS011;22291;52.250;21.228;2022-12-20T14:36:45;50.83;;;24.87;;
36253;SDS011;22291;52.250;21.228;2022-12-20T14:39:24;48.92;;;23.90;;
36253;SDS011;22291;52.250;21.228;2022-12-20T14:41:54;48.87;;;23.77;;
36253;SDS011;22291;52.250;21.228;2022-12-20T14:44:37;50.78;;;25.05;;
36253;SDS011;22291;52.250;21.228;2022-12-20T14:49:57;48.20;;;23.55;;
36253;SDS011;22291;52.250;21.228;2022-12-20T14:55:07;45.90;;;24.70;;
36253;SDS011;22291;52.250;21.228;2022-12-20T14:57:53;51.70;;;25.25;;
36253;SDS011;22291;52.250;21.228;2022-12-20T15:00:26;55.17;;;28.47;;
36253;SDS011;22291;52.250;21.228;2022-12-20T15:05:41;54.42;;;26.52;;
36253;SDS011;22291;52.250;21.228;2022-12-20T15:08:19;51.95;;;25.15;;
36253;SDS011;22291;52.250;21.228;2022-12-20T15:13:42;49.58;;;25.37;;
36253;SDS011;22291;52.250;21.228;2022-12-20T15:16:24;57.65;;;27.82;;
36253;SDS011;22291;52.250;21.228;2022-12-20T15:18:54;48.25;;;24.63;;
36253;SDS011;22291;52.250;21.228;2022-12-20T15:24:02;50.08;;;25.75;;
36253;SDS011;22291;52.250;21.228;2022-12-20T15:26:30;49.73;;;27.05;;
36253;SDS011;22291;52.250;21.228;2022-12-20T15:28:57;50.48;;;24.87;;
36253;SDS011;22291;52.250;21.228;2022-12-20T15:31:23;50.15;;;25.17;;
36253;SDS011;22291;52.250;21.228;2022-12-20T15:33:53;53.85;;;26.12;;
36253;SDS011;22291;52.250;21.228;2022-12-20T15:36:24;54.58;;;26.35;;
36253;SDS011;22291;52.250;21.228;2022-12-20T15:38:54;53.23;;;25.50;;
36253;SDS011;22291;52.250;21.228;2022-12-20T15:41:29;49.83;;;25.68;;
36253;SDS011;22291;52.250;21.228;2022-12-20T15:44:00;52.67;;;25.85;;
36253;SDS011;22291;52.250;21.228;2022-12-20T15:46:50;54.70;;;25.85;;
36253;SDS011;22291;52.250;21.228;2022-12-20T15:49:22;55.30;;;26.50;;
36253;SDS011;22291;52.250;21.228;2022-12-20T15:51:54;56.13;;;26.87;;
36253;SDS011;22291;52.250;21.228;2022-12-20T15:54:22;52.10;;;25.65;;
36253;SDS011;22291;52.250;21.228;2022-12-20T15:56:56;50.20;;;26.15;;
36253;SDS011;22291;52.250;21.228;2022-12-20T15:59:31;56.42;;;28.23;;
36253;SDS011;22291;52.250;21.228;2022-12-20T16:01:58;51.00;;;25.08;;
36253;SDS011;22291;52.250;21.228;2022-12-20T16:04:25;57.27;;;27.37;;
36253;SDS011;22291;52.250;21.228;2022-12-20T16:06:55;58.55;;;26.93;;
36253;SDS011;22291;52.250;21.228;2022-12-20T16:09:22;57.93;;;27.35;;
36253;SDS011;22291;52.250;21.228;2022-12-20T16:11:50;57.00;;;27.58;;
36253;SDS011;22291;52.250;21.228;2022-12-20T16:14:19;58.38;;;26.65;;
36253;SDS011;22291;52.250;21.228;2022-12-20T16:16:47;51.15;;;25.57;;
36253;SDS011;22291;52.250;21.228;2022-12-20T16:19:15;62.90;;;27.20;;
36253;SDS011;22291;52.250;21.228;2022-12-20T16:21:45;58.10;;;28.23;;
36253;SDS011;22291;52.250;21.228;2022-12-20T16:24:17;54.40;;;26.75;;
36253;SDS011;22291;52.250;21.228;2022-12-20T16:26:50;52.53;;;25.75;;
36253;SDS011;22291;52.250;21.228;2022-12-20T16:29:17;60.00;;;28.10;;
36253;SDS011;22291;52.250;21.228;2022-12-20T16:31:44;55.28;;;27.17;;
36253;SDS011;22291;52.250;21.228;2022-12-20T16:34:12;59.63;;;28.90;;
36253;SDS011;22291;52.250;21.228;2022-12-20T16:36:41;53.68;;;26.55;;
36253;SDS011;22291;52.250;21.228;2022-12-20T16:39:10;53.93;;;25.83;;
36253;SDS011;22291;52.250;21.228;2022-12-20T16:41:39;55.30;;;27.17;;
36253;SDS011;22291;52.250;21.228;2022-12-20T16:44:12;51.88;;;26.12;;
36253;SDS011;22291;52.250;21.228;2022-12-20T16:46:41;51.55;;;25.65;;
36253;SDS011;22291;52.250;21.228;2022-12-20T16:49:10;50.00;;;26.35;;
36253;SDS011;22291;52.250;21.228;2022-12-20T16:51:39;57.60;;;26.85;;
36253;SDS011;22291;52.250;21.228;2022-12-20T16:54:12;57.43;;;27.40;;
36253;SDS011;22291;52.250;21.228;2022-12-20T16:56:47;57.40;;;27.73;;
36253;SDS011;22291;52.250;21.228;2022-12-20T16:59:19;55.78;;;28.27;;
36253;SDS011;22291;52.250;21.228;2022-12-20T17:04:18;46.13;;;24.23;;
36253;SDS011;22291;52.250;21.228;2022-12-20T17:09:16;53.23;;;25.77;;
36253;SDS011;22291;52.250;21.228;2022-12-20T17:11:46;53.00;;;27.35;;
36253;SDS011;22291;52.250;21.228;2022-12-20T17:14:14;57.58;;;28.52;;
36253;SDS011;22291;52.250;21.228;2022-12-20T17:16:42;55.10;;;28.38;;
36253;SDS011;22291;52.250;21.228;2022-12-20T17:19:08;57.23;;;27.45;;
36253;SDS011;22291;52.250;21.228;2022-12-20T17:21:47;57.80;;;28.80;;
36253;SDS011;22291;52.250;21.228;2022-12-20T17:24:15;57.53;;;27.70;;
36253;SDS011;22291;52.250;21.228;2022-12-20T17:26:45;55.10;;;27.77;;
36253;SDS011;22291;52.250;21.228;2022-12-20T17:29:15;53.58;;;26.68;;
36253;SDS011;22291;52.250;21.228;2022-12-20T17:31:43;62.33;;;28.02;;
36253;SDS011;22291;52.250;21.228;2022-12-20T17:34:14;57.13;;;27.60;;
36253;SDS011;22291;52.250;21.228;2022-12-20T17:36:46;51.55;;;27.55;;
36253;SDS011;22291;52.250;21.228;2022-12-20T17:39:17;53.50;;;27.87;;
36253;SDS011;22291;52.250;21.228;2022-12-20T17:41:43;54.48;;;26.87;;
36253;SDS011;22291;52.250;21.228;2022-12-20T17:44:20;52.15;;;26.77;;
36253;SDS011;22291;52.250;21.228;2022-12-20T17:46:49;56.90;;;27.90;;
36253;SDS011;22291;52.250;21.228;2022-12-20T17:51:48;54.20;;;26.42;;
36253;SDS011;22291;52.250;21.228;2022-12-20T17:54:18;57.98;;;27.62;;
36253;SDS011;22291;52.250;21.228;2022-12-20T17:56:48;53.13;;;26.93;;
36253;SDS011;22291;52.250;21.228;2022-12-20T17:59:18;58.50;;;27.80;;
36253;SDS011;22291;52.250;21.228;2022-12-20T18:01:47;52.03;;;26.33;;
36253;SDS011;22291;52.250;21.228;2022-12-20T18:04:14;57.10;;;27.75;;
36253;SDS011;22291;52.250;21.228;2022-12-20T18:06:43;56.70;;;28.17;;
36253;SDS011;22291;52.250;21.228;2022-12-20T18:09:12;57.03;;;26.52;;
36253;SDS011;22291;52.250;21.228;2022-12-20T18:11:43;53.50;;;27.02;;
36253;SDS011;22291;52.250;21.228;2022-12-20T18:14:12;48.20;;;25.75;;
36253;SDS011;22291;52.250;21.228;2022-12-20T18:16:43;51.18;;;26.12;;
36253;SDS011;22291;52.250;21.228;2022-12-20T18:19:17;57.65;;;28.32;;
36253;SDS011;22291;52.250;21.228;2022-12-20T18:21:46;54.27;;;26.40;;
36253;SDS011;22291;52.250;21.228;2022-12-20T18:24:13;59.63;;;28.45;;
36253;SDS011;22291;52.250;21.228;2022-12-20T18:26:46;55.65;;;28.75;;
36253;SDS011;22291;52.250;21.228;2022-12-20T18:29:13;60.05;;;29.70;;
36253;SDS011;22291;52.250;21.228;2022-12-20T18:31:40;55.95;;;28.67;;
36253;SDS011;22291;52.250;21.228;2022-12-20T18:34:06;57.13;;;28.47;;
36253;SDS011;22291;52.250;21.228;2022-12-20T18:36:35;60.10;;;30.15;;
36253;SDS011;22291;52.250;21.228;2022-12-20T18:39:04;55.28;;;28.00;;
36253;SDS011;22291;52.250;21.228;2022-12-20T18:41:37;59.15;;;29.98;;
36253;SDS011;22291;52.250;21.228;2022-12-20T18:44:08;58.83;;;29.87;;
36253;SDS011;22291;52.250;21.228;2022-12-20T18:46:37;54.42;;;28.67;;
36253;SDS011;22291;52.250;21.228;2022-12-20T18:49:05;64.47;;;31.73;;
36253;SDS011;22291;52.250;21.228;2022-12-20T18:51:33;62.00;;;30.67;;
36253;SDS011;22291;52.250;21.228;2022-12-20T18:54:01;58.95;;;29.23;;
36253;SDS011;22291;52.250;21.228;2022-12-20T18:56:33;59.20;;;29.05;;
36253;SDS011;22291;52.250;21.228;2022-12-20T18:59:05;60.33;;;29.45;;
36253;SDS011;22291;52.250;21.228;2022-12-20T19:01:33;62.53;;;31.87;;
36253;SDS011;22291;52.250;21.228;2022-12-20T19:04:02;98.97;;;57.70;;
36253;SDS011;22291;52.250;21.228;2022-12-20T19:06:33;73.25;;;36.90;;
36253;SDS011;22291;52.250;21.228;2022-12-20T19:09:07;52.70;;;27.00;;
36253;SDS011;22291;52.250;21.228;2022-12-20T19:11:42;55.78;;;28.50;;
36253;SDS011;22291;52.250;21.228;2022-12-20T19:14:08;54.48;;;29.05;;
36253;SDS011;22291;52.250;21.228;2022-12-20T19:16:37;57.40;;;28.47;;
36253;SDS011;22291;52.250;21.228;2022-12-20T19:19:06;61.95;;;29.15;;
36253;SDS011;22291;52.250;21.228;2022-12-20T19:21:35;60.50;;;29.37;;
36253;SDS011;22291;52.250;21.228;2022-12-20T19:24:06;57.78;;;28.70;;
36253;SDS011;22291;52.250;21.228;2022-12-20T19:26:37;55.88;;;28.50;;
36253;SDS011;22291;52.250;21.228;2022-12-20T19:31:34;51.77;;;27.10;;
36253;SDS011;22291;52.250;21.228;2022-12-20T19:34:04;53.73;;;29.72;;
36253;SDS011;22291;52.250;21.228;2022-12-20T19:36:37;52.15;;;27.77;;
36253;SDS011;22291;52.250;21.228;2022-12-20T19:41:45;53.90;;;25.62;;
36253;SDS011;22291;52.250;21.228;2022-12-20T19:44:14;47.00;;;22.20;;
36253;SDS011;22291;52.250;21.228;2022-12-20T19:46:42;55.17;;;25.77;;
36253;SDS011;22291;52.250;21.228;2022-12-20T19:49:08;53.52;;;26.97;;
36253;SDS011;22291;52.250;21.228;2022-12-20T19:51:36;57.10;;;28.25;;
36253;SDS011;22291;52.250;21.228;2022-12-20T19:54:05;57.53;;;27.30;;
36253;SDS011;22291;52.250;21.228;2022-12-20T19:56:32;58.63;;;29.40;;
36253;SDS011;22291;52.250;21.228;2022-12-20T19:59:01;56.60;;;26.70;;
36253;SDS011;22291;52.250;21.228;2022-12-20T20:01:28;55.05;;;27.02;;
36253;SDS011;22291;52.250;21.228;2022-12-20T20:03:56;61.65;;;30.50;;
36253;SDS011;22291;52.250;21.228;2022-12-20T20:06:25;59.30;;;27.13;;
36253;SDS011;22291;52.250;21.228;2022-12-20T20:08:54;57.50;;;27.48;;
36253;SDS011;22291;52.250;21.228;2022-12-20T20:11:24;55.83;;;28.00;;
36253;SDS011;22291;52.250;21.228;2022-12-20T20:13:51;55.88;;;26.97;;
36253;SDS011;22291;52.250;21.228;2022-12-20T20:16:18;56.08;;;25.75;;
36253;SDS011;22291;52.250;21.228;2022-12-20T20:18:46;57.75;;;26.75;;
36253;SDS011;22291;52.250;21.228;2022-12-20T20:21:14;54.20;;;24.90;;
36253;SDS011;22291;52.250;21.228;2022-12-20T20:23:45;51.33;;;24.87;;
36253;SDS011;22291;52.250;21.228;2022-12-20T20:26:14;53.13;;;28.23;;
36253;SDS011;22291;52.250;21.228;2022-12-20T20:28:44;54.20;;;25.32;;
36253;SDS011;22291;52.250;21.228;2022-12-20T20:31:13;52.20;;;25.62;;
36253;SDS011;22291;52.250;21.228;2022-12-20T20:33:42;58.50;;;28.65;;
36253;SDS011;22291;52.250;21.228;2022-12-20T20:36:11;47.45;;;21.40;;
36253;SDS011;22291;52.250;21.228;2022-12-20T20:38:42;53.87;;;28.35;;
36253;SDS011;22291;52.250;21.228;2022-12-20T20:41:10;60.58;;;27.93;;
36253;SDS011;22291;52.250;21.228;2022-12-20T20:43:39;56.23;;;27.67;;
36253;SDS011;22291;52.250;21.228;2022-12-20T20:46:07;48.10;;;23.92;;
36253;SDS011;22291;52.250;21.228;2022-12-20T20:48:37;57.80;;;27.98;;
36253;SDS011;22291;52.250;21.228;2022-12-20T20:51:07;54.93;;;27.40;;
36253;SDS011;22291;52.250;21.228;2022-12-20T20:53:34;52.78;;;28.23;;
36253;SDS011;22291;52.250;21.228;2022-12-20T20:56:02;60.00;;;28.40;;
36253;SDS011;22291;52.250;21.228;2022-12-20T20:58:33;53.58;;;26.60;;
36253;SDS011;22291;52.250;21.228;2022-12-20T21:01:01;49.67;;;26.42;;
36253;SDS011;22291;52.250;21.228;2022-12-20T21:03:33;50.78;;;25.45;;
36253;SDS011;22291;52.250;21.228;2022-12-20T21:06:00;52.80;;;25.65;;
36253;SDS011;22291;52.250;21.228;2022-12-20T21:08:30;52.40;;;25.27;;
36253;SDS011;22291;52.250;21.228;2022-12-20T21:10:58;53.17;;;26.48;;
36253;SDS011;22291;52.250;21.228;2022-12-20T21:13:32;50.50;;;26.52;;
36253;SDS011;22291;52.250;21.228;2022-12-20T21:16:31;55.55;;;26.77;;
36253;SDS011;22291;52.250;21.228;2022-12-20T21:18:43;52.58;;;26.17;;
36253;SDS011;22291;52.250;21.228;2022-12-20T21:21:16;51.45;;;25.82;;
36253;SDS011;22291;52.250;21.228;2022-12-20T21:23:43;50.25;;;23.62;;
36253;SDS011;22291;52.250;21.228;2022-12-20T21:26:12;49.88;;;23.15;;
36253;SDS011;22291;52.250;21.228;2022-12-20T21:28:43;44.55;;;18.17;;
36253;SDS011;22291;52.250;21.228;2022-12-20T21:31:12;47.70;;;23.30;;
36253;SDS011;22291;52.250;21.228;2022-12-20T21:33:44;51.92;;;24.32;;
36253;SDS011;22291;52.250;21.228;2022-12-20T21:36:15;46.20;;;23.10;;
36253;SDS011;22291;52.250;21.228;2022-12-20T21:38:52;43.65;;;21.12;;
36253;SDS011;22291;52.250;21.228;2022-12-20T21:41:22;48.38;;;23.22;;
36253;SDS011;22291;52.250;21.228;2022-12-20T21:44:00;46.42;;;22.25;;
36253;SDS011;22291;52.250;21.228;2022-12-20T21:46:26;53.15;;;24.65;;
36253;SDS011;22291;52.250;21.228;2022-12-20T21:48:56;55.30;;;24.80;;
36253;SDS011;22291;52.250;21.228;2022-12-20T21:51:25;49.73;;;24.50;;
36253;SDS011;22291;52.250;21.228;2022-12-20T21:53:58;51.35;;;24.02;;
36253;SDS011;22291;52.250;21.228;2022-12-20T21:56:25;48.83;;;23.18;;
36253;SDS011;22291;52.250;21.228;2022-12-20T21:58:56;51.98;;;24.47;;
36253;SDS011;22291;52.250;21.228;2022-12-20T22:01:24;54.40;;;24.45;;
36253;SDS011;22291;52.250;21.228;2022-12-20T22:04:03;56.15;;;24.70;;
36253;SDS011;22291;52.250;21.228;2022-12-20T22:06:27;52.45;;;23.98;;
36253;SDS011;22291;52.250;21.228;2022-12-20T22:08:56;54.40;;;23.32;;
36253;SDS011;22291;52.250;21.228;2022-12-20T22:11:25;57.00;;;25.85;;
36253;SDS011;22291;52.250;21.228;2022-12-20T22:13:53;51.25;;;26.70;;
36253;SDS011;22291;52.250;21.228;2022-12-20T22:16:21;63.68;;;30.55;;
36253;SDS011;22291;52.250;21.228;2022-12-20T22:18:52;61.23;;;31.57;;
36253;SDS011;22291;52.250;21.228;2022-12-20T22:21:22;51.18;;;27.25;;
36253;SDS011;22291;52.250;21.228;2022-12-20T22:23:54;56.98;;;28.38;;
36253;SDS011;22291;52.250;21.228;2022-12-20T22:26:23;53.57;;;27.30;;
36253;SDS011;22291;52.250;21.228;2022-12-20T22:28:55;60.10;;;29.18;;
36253;SDS011;22291;52.250;21.228;2022-12-20T22:31:25;51.83;;;28.52;;
36253;SDS011;22291;52.250;21.228;2022-12-20T22:33:53;54.42;;;27.73;;
36253;SDS011;22291;52.250;21.228;2022-12-20T22:36:22;61.92;;;30.02;;
36253;SDS011;22291;52.250;21.228;2022-12-20T22:38:50;57.35;;;28.32;;
36253;SDS011;22291;52.250;21.228;2022-12-20T22:41:22;57.27;;;28.38;;
36253;SDS011;22291;52.250;21.228;2022-12-20T22:43:54;64.85;;;29.52;;
36253;SDS011;22291;52.250;21.228;2022-12-20T22:46:24;46.18;;;22.27;;
36253;SDS011;22291;52.250;21.228;2022-12-20T22:48:54;59.83;;;28.98;;
36253;SDS011;22291;52.250;21.228;2022-12-20T22:51:23;54.40;;;26.65;;
36253;SDS011;22291;52.250;21.228;2022-12-20T22:53:55;52.67;;;26.73;;
36253;SDS011;22291;52.250;21.228;2022-12-20T22:56:24;52.55;;;26.82;;
36253;SDS011;22291;52.250;21.228;2022-12-20T22:58:51;53.87;;;28.25;;
36253;SDS011;22291;52.250;21.228;2022-12-20T23:01:19;51.23;;;26.90;;
36253;SDS011;22291;52.250;21.228;2022-12-20T23:03:47;55.23;;;27.62;;
36253;SDS011;22291;52.250;21.228;2022-12-20T23:06:16;53.17;;;28.23;;